createdAt,value
2023-03-19T00:58:22.256Z,4.28
2023-03-19T01:00:54.645Z,4.30
2023-03-19T01:03:23.618Z,4.32
2023-03-19T01:05:52.098Z,4.35
2023-03-19T01:08:20.726Z,4.38
2023-03-19T01:10:49.053Z,4.44
2023-03-19T01:13:17.742Z,4.46
2023-03-19T01:15:46.938Z,4.48
2023-03-19T01:18:15.737Z,4.52
2023-03-19T01:20:47.187Z,4.55
2023-03-19T01:23:16.091Z,4.51
2023-03-19T01:25:44.860Z,4.49
2023-03-19T01:28:13.369Z,4.46
2023-03-19T01:30:43.153Z,4.43
2023-03-19T01:33:34.385Z,4.40
2023-03-19T01:36:09.241Z,4.42
2023-03-19T01:38:56.614Z,4.44
2023-03-19T01:41:26.014Z,4.46
2023-03-19T01:43:57.074Z,4.52
2023-03-19T01:46:38.090Z,4.57
2023-03-19T01:49:35.502Z,4.59
2023-03-19T01:52:14.758Z,4.59
2023-03-19T01:55:17.618Z,4.59
2023-03-19T01:57:51.758Z,4.57
2023-03-19T02:00:39.352Z,4.54
2023-03-19T02:03:08.494Z,4.53
2023-03-19T02:06:02.618Z,4.53
2023-03-19T02:08:31.355Z,4.51
2023-03-19T02:11:00.528Z,4.51
2023-03-19T02:13:29.137Z,4.52
2023-03-19T02:15:57.518Z,4.49
2023-03-19T02:18:27.895Z,4.49
2023-03-19T02:21:03.311Z,4.49
2023-03-19T02:23:44.113Z,4.49
2023-03-19T02:26:16.756Z,4.49
2023-03-19T02:28:47.107Z,4.50
2023-03-19T02:31:18.656Z,4.50
2023-03-19T02:34:06.308Z,4.49
2023-03-19T02:36:47.401Z,4.49
2023-03-19T02:39:41.767Z,4.49
2023-03-19T02:42:11.982Z,4.53
2023-03-19T02:44:40.502Z,4.53
2023-03-19T02:47:09.865Z,4.52
2023-03-19T02:49:38.756Z,4.53
2023-03-19T02:52:07.775Z,4.52
2023-03-19T02:54:35.988Z,4.50
2023-03-19T02:57:04.643Z,4.51
2023-03-19T02:59:39.229Z,4.53
2023-03-19T03:02:08.763Z,4.53
2023-03-19T03:04:37.551Z,4.55
2023-03-19T03:07:06.318Z,4.57
2023-03-19T03:09:35.911Z,4.60
2023-03-19T03:12:05.038Z,4.61
2023-03-19T03:14:33.855Z,4.59
2023-03-19T03:17:02.413Z,4.55
2023-03-19T03:19:34.659Z,4.49
2023-03-19T03:22:05.905Z,4.45
2023-03-19T03:24:34.538Z,4.39
2023-03-19T03:27:06.800Z,4.29
2023-03-19T03:29:36.976Z,4.22
2023-03-19T03:32:07.304Z,4.19
2023-03-19T03:34:36.599Z,4.18
2023-03-19T03:37:04.833Z,4.22
2023-03-19T03:39:33.276Z,4.23
2023-03-19T03:42:01.754Z,4.25
2023-03-19T03:44:31.678Z,4.25
2023-03-19T03:47:05.050Z,4.26
2023-03-19T03:49:33.728Z,4.27
2023-03-19T03:52:02.375Z,4.28
2023-03-19T03:54:32.969Z,4.30
2023-03-19T03:57:03.480Z,4.29
2023-03-19T03:59:38.124Z,4.25
2023-03-19T04:02:06.972Z,4.24
2023-03-19T04:04:36.387Z,4.19
2023-03-19T04:07:05.020Z,4.16
2023-03-19T04:09:46.809Z,4.13
2023-03-19T04:12:15.140Z,4.14
2023-03-19T04:14:49.821Z,4.15
2023-03-19T04:17:18.582Z,4.13
2023-03-19T04:19:47.880Z,4.12
2023-03-19T04:22:19.008Z,4.11
2023-03-19T04:24:48.704Z,4.10
2023-03-19T04:27:17.192Z,4.11
2023-03-19T04:29:45.998Z,4.15
2023-03-19T04:32:15.534Z,4.14
2023-03-19T04:34:47.158Z,4.12
2023-03-19T04:37:16.123Z,4.11
2023-03-19T04:39:48.186Z,4.08
2023-03-19T04:42:17.489Z,4.07
2023-03-19T04:44:51.600Z,4.08
2023-03-19T04:47:24.217Z,4.10
2023-03-19T04:50:01.465Z,4.11
2023-03-19T04:52:31.996Z,4.07
2023-03-19T04:55:00.678Z,4.06
2023-03-19T04:57:30.176Z,4.08
2023-03-19T04:59:59.316Z,4.10
2023-03-19T05:02:28.277Z,4.10
2023-03-19T05:04:56.427Z,4.12
2023-03-19T05:07:25.038Z,4.13
2023-03-19T05:09:54.631Z,4.13
2023-03-19T05:12:27.109Z,4.17
2023-03-19T05:14:58.076Z,4.17
2023-03-19T05:17:37.432Z,4.17
2023-03-19T05:20:25.739Z,4.18
2023-03-19T05:22:58.594Z,4.20
2023-03-19T05:25:36.154Z,4.22
2023-03-19T05:28:05.499Z,4.28
2023-03-19T05:30:34.924Z,4.28
2023-03-19T05:33:23.151Z,4.26
2023-03-19T05:35:53.200Z,4.28
2023-03-19T05:38:29.310Z,4.31
2023-03-19T05:41:05.353Z,4.35
2023-03-19T05:43:41.856Z,4.36
2023-03-19T05:46:14.213Z,4.37
2023-03-19T05:48:42.423Z,4.35
2023-03-19T05:51:16.247Z,4.38
2023-03-19T05:53:47.041Z,4.43
2023-03-19T06:14:41.631Z,4.33
2023-03-19T07:43:37.527Z,4.77
2023-03-19T10:20:36.644Z,5.67
2023-03-19T13:05:23.320Z,6.30
2023-03-19T13:07:58.734Z,6.27
2023-03-19T13:10:27.184Z,6.24
2023-03-19T13:12:57.313Z,6.20
2023-03-19T13:15:27.938Z,6.17
2023-03-19T13:18:24.997Z,6.16
2023-03-19T13:21:02.686Z,6.17
2023-03-19T13:23:34.236Z,6.17
2023-03-19T13:26:10.008Z,6.16
2023-03-19T13:28:53.373Z,6.15
2023-03-19T13:31:24.308Z,6.14
2023-03-19T13:34:20.290Z,6.12
2023-03-19T13:37:12.580Z,6.07
2023-03-19T13:39:42.362Z,6.04
2023-03-19T13:42:20.248Z,6.01
2023-03-19T13:44:55.303Z,5.99
2023-03-19T13:47:26.804Z,5.97
2023-03-19T13:50:18.283Z,5.98
2023-03-19T13:52:50.580Z,5.98
2023-03-19T13:55:24.694Z,5.97
2023-03-19T13:58:12.493Z,5.95
2023-03-19T14:00:45.261Z,5.90
2023-03-19T14:03:23.998Z,5.87
2023-03-19T14:05:56.597Z,5.87
2023-03-19T14:08:30.141Z,5.91
2023-03-19T14:10:59.988Z,5.92
2023-03-19T14:13:34.102Z,5.94
2023-03-19T14:16:17.010Z,5.95
2023-03-19T14:18:45.866Z,5.94
2023-03-19T14:21:22.783Z,5.92
2023-03-19T14:23:55.024Z,5.90
2023-03-19T14:26:24.521Z,5.88
2023-03-19T14:29:05.383Z,5.88
2023-03-19T14:31:58.395Z,5.90
2023-03-19T14:34:35.019Z,5.93
2023-03-19T14:37:25.254Z,5.93
2023-03-19T14:40:04.737Z,5.94
2023-03-19T14:42:50.481Z,5.90
2023-03-19T14:45:47.105Z,5.87
2023-03-19T14:48:36.146Z,5.83
2023-03-19T14:51:13.436Z,5.81
2023-03-19T14:53:46.617Z,5.81
2023-03-19T14:56:23.392Z,5.78
2023-03-19T14:58:54.093Z,5.77
2023-03-19T15:01:30.017Z,5.75
2023-03-19T15:04:04.117Z,5.73
2023-03-19T15:06:35.593Z,5.72
2023-03-19T15:09:27.290Z,5.71
2023-03-19T15:12:16.632Z,5.68
2023-03-19T15:14:54.110Z,5.63
2023-03-19T15:17:24.868Z,5.60
2023-03-19T15:19:53.647Z,5.58
2023-03-19T15:22:31.434Z,5.58
2023-03-19T15:25:11.399Z,5.60
2023-03-19T15:27:40.103Z,5.61
2023-03-19T15:30:29.407Z,5.59
2023-03-19T15:33:12.015Z,5.58
2023-03-19T15:35:46.516Z,5.57
2023-03-19T15:38:16.511Z,5.55
2023-03-19T15:40:44.874Z,5.57
2023-03-19T15:43:13.497Z,5.56
2023-03-19T15:45:46.663Z,5.54
2023-03-19T15:48:26.314Z,5.50
2023-03-19T15:50:58.120Z,5.45
2023-03-19T15:53:28.537Z,5.41
2023-03-19T15:55:58.101Z,5.38
2023-03-19T15:58:28.714Z,5.36
2023-03-19T16:00:59.510Z,5.33
2023-03-19T16:04:02.136Z,5.32
2023-03-19T16:06:32.243Z,5.32
2023-03-19T16:09:25.098Z,5.34
2023-03-19T16:11:56.103Z,5.35
2023-03-19T16:14:39.874Z,5.39
2023-03-19T16:17:14.344Z,5.41
2023-03-19T16:19:58.756Z,5.42
2023-03-19T16:22:32.621Z,5.43
2023-03-19T16:25:02.784Z,5.44
2023-03-19T16:27:36.171Z,5.46
2023-03-19T16:30:26.275Z,5.48
2023-03-19T16:33:03.054Z,5.49
2023-03-19T16:35:35.039Z,5.50
2023-03-19T16:45:27.275Z,5.43
2023-03-19T16:48:01.021Z,5.41
2023-03-19T16:50:35.660Z,5.41
2023-03-19T16:53:05.779Z,5.39
2023-03-19T16:55:36.724Z,5.38
2023-03-19T16:58:17.126Z,5.40
2023-03-19T17:00:46.147Z,5.42
2023-03-19T17:03:17.682Z,5.42
2023-03-19T17:05:46.775Z,5.41
2023-03-19T17:08:17.766Z,5.40
2023-03-19T17:10:49.561Z,5.41
2023-03-19T17:13:20.740Z,5.41
2023-03-19T17:15:50.525Z,5.40
2023-03-19T17:18:24.501Z,5.37
2023-03-19T17:21:00.025Z,5.32
2023-03-19T17:23:30.559Z,5.30
2023-03-19T17:25:59.691Z,5.28
2023-03-19T17:28:32.679Z,5.26
2023-03-19T17:31:01.254Z,5.25
2023-03-19T17:33:32.854Z,5.24
2023-03-19T17:36:01.303Z,5.23
2023-03-19T17:38:34.070Z,5.24
2023-03-19T17:41:05.726Z,5.23
2023-03-19T17:43:34.208Z,5.23
2023-03-19T17:46:02.961Z,5.25
2023-03-19T17:48:31.296Z,5.26
2023-03-19T17:51:02.380Z,5.27
2023-03-19T17:53:30.898Z,5.28
2023-03-19T17:56:00.578Z,5.27
2023-03-19T17:58:32.826Z,5.28
2023-03-19T18:01:03.467Z,5.30
2023-03-19T18:03:36.648Z,5.32
2023-03-19T18:06:09.382Z,5.33
2023-03-19T18:08:38.556Z,5.31
2023-03-19T18:11:06.862Z,5.29
2023-03-19T18:13:38.093Z,5.29
2023-03-19T18:16:12.584Z,5.28
2023-03-19T18:18:41.315Z,5.30
2023-03-19T18:21:14.080Z,5.30
2023-03-19T18:23:43.810Z,5.29
2023-03-19T18:26:12.037Z,5.30
2023-03-19T18:28:40.425Z,5.28
2023-03-19T18:31:26.699Z,5.26
2023-03-19T18:33:59.840Z,5.25
2023-03-19T18:36:31.732Z,5.26
2023-03-19T18:39:00.395Z,5.26
2023-03-19T18:41:29.225Z,5.27
2023-03-19T18:44:07.393Z,5.28
2023-03-19T18:46:36.783Z,5.28
2023-03-19T18:49:19.725Z,5.26
2023-03-19T18:52:01.762Z,5.26
2023-03-19T18:54:31.697Z,5.25
2023-03-19T18:57:03.579Z,5.25
2023-03-19T18:59:33.314Z,5.29
2023-03-19T19:02:21.258Z,5.32
2023-03-19T19:04:49.729Z,5.37
2023-03-19T19:07:18.014Z,5.39
2023-03-19T19:09:46.765Z,5.40
2023-03-19T19:12:18.346Z,5.40
2023-03-19T19:14:47.214Z,5.40
2023-03-19T19:17:21.529Z,5.39
2023-03-19T19:19:51.636Z,5.37
2023-03-19T19:22:20.447Z,5.33
2023-03-19T19:24:49.002Z,5.31
2023-03-19T19:27:21.012Z,5.30
2023-03-19T19:29:51.404Z,5.30
2023-03-19T19:32:26.679Z,5.29
2023-03-19T19:34:55.233Z,5.31
2023-03-19T19:37:29.358Z,5.33
2023-03-19T19:39:58.328Z,5.33
2023-03-19T19:42:26.733Z,5.34
2023-03-19T19:44:56.455Z,5.36
2023-03-19T19:47:25.076Z,5.37
2023-03-19T19:49:58.420Z,5.38
2023-03-19T19:52:31.690Z,5.38
2023-03-19T19:55:00.108Z,5.37
2023-03-19T19:57:28.485Z,5.32
2023-03-19T19:59:57.129Z,5.27
2023-03-19T20:02:29.378Z,5.26
2023-03-19T20:04:58.715Z,5.23
2023-03-19T20:07:27.418Z,5.22
2023-03-19T20:09:56.306Z,5.20
2023-03-19T20:12:28.265Z,5.22
2023-03-19T20:14:57.124Z,5.24
2023-03-19T20:17:25.715Z,5.27
2023-03-19T20:19:55.941Z,5.26
2023-03-19T20:22:24.310Z,5.24
2023-03-19T20:24:53.193Z,5.21
2023-03-19T20:27:23.621Z,5.18
2023-03-19T20:29:53.922Z,5.15
2023-03-19T20:32:36.142Z,5.11
2023-03-19T20:35:14.811Z,5.10
2023-03-19T20:37:43.108Z,5.09
2023-03-19T20:40:13.006Z,5.11
2023-03-19T20:42:41.858Z,5.09
2023-03-19T20:45:15.524Z,5.10
2023-03-19T20:47:44.743Z,5.11
2023-03-19T20:50:17.657Z,5.12
2023-03-19T20:52:49.482Z,5.13
2023-03-19T20:55:19.912Z,5.12
2023-03-19T20:57:49.532Z,5.10
2023-03-19T21:00:23.887Z,5.10
2023-03-19T21:02:53.085Z,5.10
2023-03-19T21:05:36.796Z,5.10
2023-03-19T21:08:16.618Z,5.11
2023-03-19T21:10:45.793Z,5.13
2023-03-19T21:13:17.112Z,5.13
2023-03-19T21:15:47.235Z,5.13
2023-03-19T21:18:17.202Z,5.14
2023-03-19T21:20:48.193Z,5.13
2023-03-19T21:23:37.382Z,5.11
2023-03-19T21:26:16.847Z,5.10
2023-03-19T21:28:46.042Z,5.07
2023-03-19T21:31:18.158Z,5.03
2023-03-19T21:33:49.246Z,5.01
2023-03-19T21:36:18.065Z,5.00
2023-03-19T21:38:46.735Z,5.00
2023-03-19T21:41:37.423Z,5.01
2023-03-19T21:44:07.682Z,5.03
2023-03-19T21:46:36.919Z,5.05
2023-03-19T21:49:07.738Z,5.03
2023-03-19T21:51:38.217Z,4.98
2023-03-19T21:54:06.695Z,4.99
2023-03-19T21:56:40.396Z,5.02
2023-03-19T21:59:38.873Z,5.03
2023-03-19T22:02:23.833Z,5.03
2023-03-19T22:04:52.426Z,5.01
2023-03-19T22:07:20.909Z,5.01
2023-03-19T22:09:50.095Z,5.00
2023-03-19T22:12:27.808Z,5.02
2023-03-19T22:14:56.500Z,5.03
2023-03-19T22:17:26.902Z,5.05
2023-03-19T22:19:55.182Z,5.03
2023-03-19T22:22:23.884Z,5.00
2023-03-19T22:24:56.035Z,4.99
2023-03-19T22:27:24.342Z,5.02
2023-03-19T22:29:52.601Z,5.04
2023-03-19T22:32:21.172Z,5.01
2023-03-19T22:34:49.624Z,4.98
2023-03-19T22:37:29.603Z,4.97
2023-03-19T22:39:57.879Z,4.93
2023-03-19T22:49:55.697Z,4.86
2023-03-19T22:52:24.049Z,4.79
2023-03-19T22:54:54.095Z,4.78
2023-03-19T22:57:22.756Z,4.81
2023-03-19T22:59:53.042Z,4.84
2023-03-19T23:02:24.507Z,4.85
2023-03-19T23:04:53.230Z,4.87
2023-03-19T23:07:24.829Z,4.88
2023-03-19T23:09:57.074Z,4.93
2023-03-19T23:12:33.892Z,4.95
2023-03-19T23:15:02.590Z,4.92
2023-03-19T23:17:31.536Z,4.92
2023-03-19T23:20:00.189Z,4.95
2023-03-19T23:22:28.931Z,4.94
2023-03-19T23:24:58.293Z,4.93
2023-03-19T23:27:26.991Z,4.92
2023-03-19T23:29:56.562Z,4.91
2023-03-19T23:32:29.064Z,4.91
2023-03-19T23:35:01.429Z,4.92
2023-03-19T23:37:30.249Z,4.93
2023-03-19T23:40:01.984Z,4.94
2023-03-19T23:42:31.815Z,4.96
2023-03-19T23:45:05.138Z,4.98
2023-03-19T23:47:33.961Z,5.00
2023-03-19T23:50:02.433Z,4.99
2023-03-19T23:52:34.027Z,4.99
2023-03-19T23:55:03.186Z,4.99
2023-03-19T23:57:31.560Z,5.00
